Time;durP1;ratioP1;P1;durP2;ratioP2;P2;SDS_P1;SDS_P2;PMS_P1;PMS_P2;Temp;Humidity;BMP_temperature;BMP_pressure;BME280_temperature;BME280_humidity;BME280_pressure;Samples;Min_cycle;Max_cycle;Signal;HPM_P1;HPM_P2
2022/02/03 00:01:23;;;;;;;;;;;2.20;99.90;;;;;;5040231;28;20020;-77
2022/02/03 00:04:01;;;;;;;;;;;2.20;99.90;;;;;;5042752;28;20076;-76
2022/02/03 00:06:39;;;;;;;;;;;2.10;99.90;;;;;;5020837;28;19921;-77
2022/02/03 00:25:28;;;;;;;;;;;2.60;99.90;;;;;;5043626;28;20369;-76
2022/02/03 00:30:58;;;;;;;;;;;2.50;99.90;;;;;;5021457;28;19964;-74
2022/02/03 00:49:19;;;;;;;;;;;3.20;99.90;;;;;;5021258;28;19933;-75
2022/02/03 00:51:51;;;;;;;;;;;3.40;99.90;;;;;;5003938;28;20567;-76
2022/02/03 00:54:21;;;;;;;;;;;3.50;99.90;;;;;;5021744;28;20010;-76
2022/02/03 00:56:58;;;;;;;;;;;3.60;99.90;;;;;;5025950;28;19991;-76
2022/02/03 00:59:28;;;;;;;;;;;3.60;99.90;;;;;;5041191;28;19921;-76
2022/02/03 01:01:58;;;;;;;;;;;3.70;99.90;;;;;;5007483;28;19978;-77
2022/02/03 01:04:25;;;;;;;;;;;3.70;99.90;;;;;;5041451;28;19920;-77
2022/02/03 01:06:55;;;;;;;;;;;3.80;99.90;;;;;;5040211;28;20344;-76
2022/02/03 01:09:24;;;;;;;;;;;3.80;99.90;;;;;;5052846;28;20332;-76
2022/02/03 01:12:01;;;;;;;;;;;3.80;99.90;;;;;;5022343;22;19936;-75
2022/02/03 01:14:45;;;;;;;;;;;3.90;99.90;;;;;;5053432;28;19936;-75
2022/02/03 01:17:27;;;;;;;;;;;4.10;99.90;;;;;;5044308;28;19955;-75
2022/02/03 01:34:06;;;;;;;;;;;4.20;99.90;;;;;;5065624;28;20346;-75
2022/02/03 01:37:09;;;;;;;;;;;4.10;99.90;;;;;;5047247;28;20024;-75
2022/02/03 01:45:47;;;;;;;;;;;4.30;99.90;;;;;;5044878;28;19924;-74
2022/02/03 01:53:39;;;;;;;;;;;4.50;99.90;;;;;;5064349;28;20027;-74
2022/02/03 01:56:13;;;;;;;;;;;4.60;99.90;;;;;;5063496;28;19956;-74
2022/02/03 01:58:46;;;;;;;;;;;4.60;99.90;;;;;;5045954;28;19924;-74
2022/02/03 02:01:33;;;;;;;;;;;4.70;99.90;;;;;;5063800;28;19967;-75
2022/02/03 02:04:07;;;;;;;;;;;4.70;99.90;;;;;;5064629;28;20130;-75
2022/02/03 02:06:39;;;;;;;;;;;4.70;99.90;;;;;;5042617;28;19959;-75
2022/02/03 02:09:14;;;;;;;;;;;4.70;99.90;;;;;;5056806;28;19959;-74
2022/02/03 02:12:16;;;;;;;;;;;4.80;99.90;;;;;;5062244;28;19920;-75
2022/02/03 02:42:44;;;;;;;;;;;5.40;99.90;;;;;;5068856;28;19952;-74
2022/02/03 02:45:13;;;;;;;;;;;5.50;99.90;;;;;;5066005;28;20382;-75
2022/02/03 02:47:39;;;;;;;;;;;5.50;99.90;;;;;;5061197;28;19924;-75
2022/02/03 02:50:09;;;;;;;;;;;5.50;99.90;;;;;;5061838;28;20029;-75
2022/02/03 02:52:44;;;;;;;;;;;5.60;99.90;;;;;;5044068;28;19964;-75
2022/02/03 02:55:45;;;;;;;;;;;5.50;99.90;;;;;;5042215;28;19921;-75
2022/02/03 03:01:30;;;;;;;;;;;5.60;99.90;;;;;;5062654;28;20027;-75
2022/02/03 03:36:20;;;;;;;;;;;6.20;99.90;;;;;;5045007;28;20398;-75
2022/02/03 03:38:49;;;;;;;;;;;6.20;99.90;;;;;;5062331;28;20400;-74
2022/02/03 03:41:17;;;;;;;;;;;6.20;99.90;;;;;;5053393;28;20445;-74
2022/02/03 03:43:44;;;;;;;;;;;6.30;99.90;;;;;;5044456;28;20018;-75
2022/02/03 03:46:11;;;;;;;;;;;6.30;99.90;;;;;;5044708;28;19924;-74
2022/02/03 03:48:55;;;;;;;;;;;6.30;99.90;;;;;;5024529;28;20020;-75
2022/02/03 03:51:27;;;;;;;;;;;6.30;99.90;;;;;;5042034;28;19966;-75
2022/02/03 03:54:03;;;;;;;;;;;6.30;99.90;;;;;;5063005;28;19997;-74
2022/02/03 03:56:51;;;;;;;;;;;6.40;99.90;;;;;;5043814;28;19947;-75
2022/02/03 04:34:14;;;;;;;;;;;6.70;99.90;;;;;;5062767;28;19964;-75
2022/02/03 04:39:37;;;;;;;;;;;6.70;99.90;;;;;;5056584;28;19921;-74
2022/02/03 04:51:12;;;;;;;;;;;6.80;99.90;;;;;;5086282;28;20010;-75
2022/02/03 04:54:26;;;;;;;;;;;6.70;99.90;;;;;;5066396;28;20021;-75
2022/02/03 05:00:34;;;;;;;;;;;6.80;99.90;;;;;;5086165;28;20014;-75
2022/02/03 05:14:19;;;;;;;;;;;6.80;99.90;;;;;;5065589;28;20004;-75
2022/02/03 05:20:14;;;;;;;;;;;6.80;99.90;;;;;;4981668;28;19971;-75
2022/02/03 05:23:39;;;;;;;;;;;6.90;99.90;;;;;;4982586;28;19930;-75
2022/02/03 05:26:21;;;;;;;;;;;6.80;99.90;;;;;;5075200;28;20481;-74
2022/02/03 05:32:10;;;;;;;;;;;6.80;99.90;;;;;;5064316;28;19925;-74
2022/02/03 05:35:15;;;;;;;;;;;6.90;99.90;;;;;;5064694;28;20430;-75
2022/02/03 05:54:55;;;;;;;;;;;6.90;99.90;;;;;;5064707;28;19939;-74
2022/02/03 06:21:51;;;;;;;;;;;7.00;99.90;;;;;;5042111;28;19940;-74
2022/02/03 06:24:32;;;;;;;;;;;7.00;99.90;;;;;;5046019;28;19979;-73
2022/02/03 06:29:37;;;;;;;;;;;7.00;99.90;;;;;;5062952;28;20054;-73
2022/02/03 06:32:04;;;;;;;;;;;7.00;99.90;;;;;;5045490;28;19955;-74
2022/02/03 06:34:30;;;;;;;;;;;7.00;99.90;;;;;;5028954;28;20600;-74
2022/02/03 06:36:57;;;;;;;;;;;7.00;99.90;;;;;;5044998;28;20010;-72
2022/02/03 06:39:25;;;;;;;;;;;7.00;99.90;;;;;;5044441;28;19981;-73
2022/02/03 06:41:54;;;;;;;;;;;7.00;99.90;;;;;;5058798;28;19966;-73
2022/02/03 06:44:27;;;;;;;;;;;7.00;99.90;;;;;;5047554;28;20488;-73
2022/02/03 06:46:57;;;;;;;;;;;7.00;99.90;;;;;;5063921;28;20574;-73
2022/02/03 06:57:25;;;;;;;;;;;7.00;99.90;;;;;;5041185;28;19975;-73
2022/02/03 06:59:58;;;;;;;;;;;7.00;99.90;;;;;;5044400;28;19932;-73
2022/02/03 07:02:29;;;;;;;;;;;7.00;99.90;;;;;;5039237;28;19948;-73
2022/02/03 07:04:57;;;;;;;;;;;7.00;99.90;;;;;;5059661;28;19978;-72
2022/02/03 07:07:25;;;;;;;;;;;7.00;99.90;;;;;;5061463;28;20308;-74
2022/02/03 07:09:53;;;;;;;;;;;7.00;99.90;;;;;;5061942;28;20023;-74
2022/02/03 07:12:21;;;;;;;;;;;7.00;99.90;;;;;;5061657;28;19950;-72
2022/02/03 07:14:48;;;;;;;;;;;7.00;99.90;;;;;;5041793;28;20011;-73
2022/02/03 07:17:15;;;;;;;;;;;7.00;99.90;;;;;;5043327;28;19952;-72
2022/02/03 07:19:47;;;;;;;;;;;7.00;99.90;;;;;;5048031;28;19932;-73
2022/02/03 07:22:14;;;;;;;;;;;7.00;99.90;;;;;;5048580;28;19947;-73
2022/02/03 07:24:46;;;;;;;;;;;7.00;99.90;;;;;;5045730;28;19927;-74
2022/02/03 07:27:12;;;;;;;;;;;7.00;99.90;;;;;;5060063;28;19927;-73
2022/02/03 07:29:39;;;;;;;;;;;7.00;99.90;;;;;;5059879;28;20011;-72
2022/02/03 07:32:06;;;;;;;;;;;7.00;99.90;;;;;;5042421;28;20457;-74
2022/02/03 07:34:33;;;;;;;;;;;7.00;99.90;;;;;;5043634;28;19952;-75
2022/02/03 07:36:59;;;;;;;;;;;7.00;99.90;;;;;;5061440;28;19921;-74
2022/02/03 07:39:26;;;;;;;;;;;7.00;99.90;;;;;;5039253;28;20173;-73
2022/02/03 07:41:53;;;;;;;;;;;7.00;99.90;;;;;;5059265;28;19930;-73
2022/02/03 07:44:19;;;;;;;;;;;7.00;99.90;;;;;;5043498;28;20224;-73
2022/02/03 07:46:46;;;;;;;;;;;7.00;99.90;;;;;;5062766;28;19926;-74
2022/02/03 07:49:13;;;;;;;;;;;7.00;99.90;;;;;;5055030;28;19962;-74
2022/02/03 07:51:39;;;;;;;;;;;7.00;99.90;;;;;;5060063;28;20003;-73
2022/02/03 07:54:09;;;;;;;;;;;7.10;99.90;;;;;;5062080;28;20337;-74
2022/02/03 07:56:36;;;;;;;;;;;7.10;99.90;;;;;;5059884;28;19925;-74
2022/02/03 07:59:02;;;;;;;;;;;7.10;99.90;;;;;;5043411;28;19924;-74
2022/02/03 08:01:29;;;;;;;;;;;7.10;99.90;;;;;;5042416;28;20398;-74
2022/02/03 08:03:58;;;;;;;;;;;7.10;99.90;;;;;;5062513;28;19994;-74
2022/02/03 08:06:30;;;;;;;;;;;7.10;99.90;;;;;;5043479;28;20374;-74
2022/02/03 08:09:21;;;;;;;;;;;7.10;99.90;;;;;;5039005;28;19931;-74
2022/02/03 08:11:53;;;;;;;;;;;7.10;99.90;;;;;;5041922;28;20098;-75
2022/02/03 08:14:32;;;;;;;;;;;7.10;99.90;;;;;;5061981;28;19971;-73
2022/02/03 08:17:12;;;;;;;;;;;7.10;99.90;;;;;;5060442;28;19981;-74
2022/02/03 08:22:15;;;;;;;;;;;7.10;99.90;;;;;;5061117;28;19930;-74
2022/02/03 08:24:55;;;;;;;;;;;7.00;99.90;;;;;;5044309;28;20007;-74
2022/02/03 08:32:43;;;;;;;;;;;7.00;99.90;;;;;;5061478;28;20007;-74
2022/02/03 08:35:21;;;;;;;;;;;7.00;99.90;;;;;;5042462;28;19952;-74
2022/02/03 08:40:40;;;;;;;;;;;7.10;99.90;;;;;;5054918;28;19924;-73
2022/02/03 08:43:07;;;;;;;;;;;7.00;99.90;;;;;;5059094;28;19924;-75
2022/02/03 08:45:33;;;;;;;;;;;7.00;99.90;;;;;;5043025;28;19920;-74
2022/02/03 08:48:00;;;;;;;;;;;7.00;99.90;;;;;;5060556;28;20611;-74
2022/02/03 08:50:27;;;;;;;;;;;7.00;99.90;;;;;;5060854;28;19928;-74
2022/02/03 08:53:02;;;;;;;;;;;7.00;99.90;;;;;;5043062;28;19959;-75
2022/02/03 08:55:39;;;;;;;;;;;7.00;99.90;;;;;;5061112;28;20302;-73
2022/02/03 09:29:31;;;;;;;;;;;7.00;99.90;;;;;;5043625;28;19955;-74
2022/02/03 09:40:08;;;;;;;;;;;6.90;99.90;;;;;;5041374;28;20015;-73
2022/02/03 09:51:38;;;;;;;;;;;7.00;99.90;;;;;;5055087;28;19924;-73
2022/02/03 09:56:51;;;;;;;;;;;7.10;99.90;;;;;;5064196;28;19928;-74
2022/02/03 09:59:20;;;;;;;;;;;7.10;99.90;;;;;;5062993;28;19972;-74
2022/02/03 10:01:55;;;;;;;;;;;7.20;99.90;;;;;;5041663;28;19927;-73
2022/02/03 10:04:57;;;;;;;;;;;7.20;99.90;;;;;;5044403;28;19920;-74
2022/02/03 10:07:25;;;;;;;;;;;7.20;99.90;;;;;;5056208;28;19928;-74
2022/02/03 10:09:53;;;;;;;;;;;7.30;99.90;;;;;;5056549;28;20406;-74
2022/02/03 10:12:28;;;;;;;;;;;7.30;99.90;;;;;;5039646;28;20302;-74
2022/02/03 10:14:55;;;;;;;;;;;7.30;99.90;;;;;;5043667;28;19955;-74
2022/02/03 10:17:44;;;;;;;;;;;7.30;99.90;;;;;;5061773;28;19935;-73
2022/02/03 10:20:14;;;;;;;;;;;7.30;99.90;;;;;;5046452;28;20482;-74
2022/02/03 10:22:45;;;;;;;;;;;7.40;99.90;;;;;;5041375;28;20555;-74
2022/02/03 10:25:14;;;;;;;;;;;7.40;99.90;;;;;;5066564;28;20011;-74
2022/02/03 10:27:42;;;;;;;;;;;7.40;99.90;;;;;;5061455;28;20015;-74
2022/02/03 10:30:15;;;;;;;;;;;7.50;99.90;;;;;;5045088;28;20156;-74
2022/02/03 10:32:43;;;;;;;;;;;7.50;99.90;;;;;;5044244;28;20018;-75
2022/02/03 10:35:45;;;;;;;;;;;7.50;99.90;;;;;;5063581;28;19954;-74
2022/02/03 10:46:36;;;;;;;;;;;7.60;99.90;;;;;;5058251;28;20027;-74
2022/02/03 11:02:11;;;;;;;;;;;7.70;99.90;;;;;;4947466;28;20389;-74
2022/02/03 11:08:17;;;;;;;;;;;7.80;99.90;;;;;;5070716;28;19956;-74
2022/02/03 11:10:50;;;;;;;;;;;7.80;99.90;;;;;;5067005;28;20027;-74
2022/02/03 11:13:40;;;;;;;;;;;7.80;99.90;;;;;;5120044;27;19923;-74
2022/02/03 11:16:09;;;;;;;;;;;7.80;99.90;;;;;;5115072;27;20114;-74
2022/02/03 11:18:37;;;;;;;;;;;7.80;99.90;;;;;;5106211;28;19967;-74
2022/02/03 11:21:04;;;;;;;;;;;7.80;99.90;;;;;;5099503;27;20424;-74
2022/02/03 11:23:58;;;;;;;;;;;7.80;99.90;;;;;;5091166;28;19928;-75
2022/02/03 11:45:14;;;;;;;;;;;7.80;99.90;;;;;;5096430;28;20098;-74
2022/02/03 11:55:25;;;;;;;;;;;7.70;99.90;;;;;;5098817;28;19930;-73
2022/02/03 12:20:34;;;;;;;;;;;7.50;99.90;;;;;;5076504;27;20015;-76
2022/02/03 12:23:07;;;;;;;;;;;7.40;99.90;;;;;;5058496;28;20581;-75
2022/02/03 12:25:47;;;;;;;;;;;7.30;99.90;;;;;;5069772;28;20056;-74
2022/02/03 12:38:50;;;;;;;;;;;7.20;99.90;;;;;;5074111;28;19939;-75
2022/02/03 12:41:20;;;;;;;;;;;7.20;99.90;;;;;;5081406;28;19981;-75
2022/02/03 12:44:00;;;;;;;;;;;7.20;99.90;;;;;;5080998;28;19967;-75
2022/02/03 12:46:28;;;;;;;;;;;7.10;99.90;;;;;;5074975;27;19943;-76
2022/02/03 12:48:55;;;;;;;;;;;7.10;99.90;;;;;;5061905;28;19974;-74
2022/02/03 12:51:23;;;;;;;;;;;7.10;99.90;;;;;;5062229;28;19938;-75
2022/02/03 12:53:50;;;;;;;;;;;7.10;99.90;;;;;;5079502;28;20067;-75
2022/02/03 12:56:24;;;;;;;;;;;7.20;99.90;;;;;;5083812;28;20357;-75
2022/02/03 12:58:52;;;;;;;;;;;7.20;99.90;;;;;;5087928;28;20051;-75
2022/02/03 13:01:28;;;;;;;;;;;7.20;99.90;;;;;;5073606;27;19935;-76
2022/02/03 13:03:55;;;;;;;;;;;7.20;99.90;;;;;;5084071;28;19924;-75
2022/02/03 13:06:25;;;;;;;;;;;7.20;99.90;;;;;;5086168;28;19934;-76
2022/02/03 13:08:54;;;;;;;;;;;7.10;99.90;;;;;;5069424;28;19981;-76
2022/02/03 13:11:44;;;;;;;;;;;7.20;99.90;;;;;;5081060;28;19974;-77
2022/02/03 13:14:43;;;;;;;;;;;7.20;99.90;;;;;;5018611;28;20480;-75
2022/02/03 13:17:19;;;;;;;;;;;7.30;99.90;;;;;;5039894;28;19952;-75
2022/02/03 13:20:12;;;;;;;;;;;7.20;99.90;;;;;;5036494;28;21090;-75
2022/02/03 13:22:57;;;;;;;;;;;7.20;99.90;;;;;;5034264;28;19979;-75
2022/02/03 13:26:09;;;;;;;;;;;7.20;99.90;;;;;;5033009;28;19932;-76
2022/02/03 13:28:32;;;;;;;;;;;7.20;99.90;;;;;;5036375;28;19953;-75
2022/02/03 13:31:20;;;;;;;;;;;7.20;99.90;;;;;;5048496;28;20492;-75
2022/02/03 13:33:56;;;;;;;;;;;7.10;99.90;;;;;;5031094;28;19932;-75
2022/02/03 13:36:29;;;;;;;;;;;7.10;99.90;;;;;;5040394;28;20002;-75
2022/02/03 13:39:05;;;;;;;;;;;6.90;99.90;;;;;;5021794;28;19933;-76
2022/02/03 13:41:35;;;;;;;;;;;6.60;99.90;;;;;;5033662;28;20367;-76
2022/02/03 13:44:03;;;;;;;;;;;6.50;99.90;;;;;;5041846;28;19939;-76
2022/02/03 13:46:31;;;;;;;;;;;6.40;99.90;;;;;;5026087;28;19963;-76
2022/02/03 13:48:58;;;;;;;;;;;6.30;99.90;;;;;;5041719;28;20618;-77
2022/02/03 13:51:26;;;;;;;;;;;6.30;99.90;;;;;;5041723;28;20024;-77
2022/02/03 14:16:45;;;;;;;;;;;6.10;99.90;;;;;;5042159;28;20196;-77
2022/02/03 14:21:58;;;;;;;;;;;6.00;99.90;;;;;;5041150;28;19932;-76
2022/02/03 14:29:24;;;;;;;;;;;5.80;99.90;;;;;;5041210;28;20070;-77
2022/02/03 14:32:02;;;;;;;;;;;5.90;99.90;;;;;;5023913;28;19963;-77
2022/02/03 14:34:35;;;;;;;;;;;5.90;99.90;;;;;;5040912;28;19929;-76
2022/02/03 14:40:31;;;;;;;;;;;5.90;99.90;;;;;;5032056;28;19980;-76
2022/02/03 14:42:28;;;;;;;;;;;5.80;99.90;;;;;;5031257;28;19964;-77
2022/02/03 14:44:54;;;;;;;;;;;5.80;99.90;;;;;;5040037;28;20621;-76
2022/02/03 14:47:23;;;;;;;;;;;5.80;99.90;;;;;;5039422;28;19929;-76
2022/02/03 14:49:49;;;;;;;;;;;5.80;99.90;;;;;;5040273;28;20035;-76
2022/02/03 14:52:30;;;;;;;;;;;5.80;99.90;;;;;;5039289;28;20294;-76
2022/02/03 15:00:28;;;;;;;;;;;5.80;99.90;;;;;;5024768;28;19979;-76
2022/02/03 15:02:55;;;;;;;;;;;5.70;99.90;;;;;;5041037;28;19928;-76
2022/02/03 15:05:28;;;;;;;;;;;5.80;99.90;;;;;;5039843;28;20406;-76
2022/02/03 15:08:02;;;;;;;;;;;5.80;99.90;;;;;;5039730;28;20015;-76
2022/02/03 15:10:42;;;;;;;;;;;5.70;99.90;;;;;;5029575;28;19925;-74
2022/02/03 15:13:15;;;;;;;;;;;5.70;99.90;;;;;;5023342;28;20218;-74
2022/02/03 15:15:41;;;;;;;;;;;5.60;99.90;;;;;;5025298;28;19974;-74
2022/02/03 15:18:08;;;;;;;;;;;5.60;99.90;;;;;;5041059;28;20039;-75
2022/02/03 15:20:38;;;;;;;;;;;5.70;99.90;;;;;;5025838;28;19990;-75
2022/02/03 15:23:06;;;;;;;;;;;5.70;99.90;;;;;;5025319;28;21138;-76
2022/02/03 15:25:33;;;;;;;;;;;5.70;99.90;;;;;;5021759;28;19929;-74
2022/02/03 15:28:00;;;;;;;;;;;5.70;99.90;;;;;;5023348;28;19928;-75
2022/02/03 15:30:26;;;;;;;;;;;5.70;99.90;;;;;;5040776;28;20015;-76
2022/02/03 15:32:53;;;;;;;;;;;5.60;99.90;;;;;;5039978;28;19929;-75
2022/02/03 15:35:26;;;;;;;;;;;5.60;99.90;;;;;;5006282;28;20378;-75
2022/02/03 15:37:53;;;;;;;;;;;5.70;99.90;;;;;;5040108;28;20307;-75
2022/02/03 15:40:23;;;;;;;;;;;5.60;99.90;;;;;;5030686;28;19940;-76
2022/02/03 15:43:00;;;;;;;;;;;5.60;99.90;;;;;;5038084;28;19928;-75
2022/02/03 15:45:33;;;;;;;;;;;5.60;99.90;;;;;;5019816;28;19960;-74
2022/02/03 15:48:05;;;;;;;;;;;5.60;99.90;;;;;;5022231;28;20346;-75
2022/02/03 15:50:52;;;;;;;;;;;5.60;99.90;;;;;;5039126;28;19972;-76
2022/02/03 16:17:28;;;;;;;;;;;5.50;99.90;;;;;;5042226;28;20070;-76
2022/02/03 16:20:03;;;;;;;;;;;5.50;99.90;;;;;;5044592;28;20012;-75
2022/02/03 16:22:57;;;;;;;;;;;5.50;99.90;;;;;;5028590;28;19947;-74
2022/02/03 16:52:48;;;;;;;;;;;5.50;99.90;;;;;;5042647;28;19966;-72
2022/02/03 16:55:19;;;;;;;;;;;5.50;99.90;;;;;;5044046;28;20058;-72
2022/02/03 16:57:51;;;;;;;;;;;5.50;99.90;;;;;;5026428;28;19928;-72
2022/02/03 17:00:19;;;;;;;;;;;5.50;99.90;;;;;;5026697;28;20371;-72
2022/02/03 17:03:01;;;;;;;;;;;5.50;99.90;;;;;;5028813;28;19949;-72
2022/02/03 17:05:28;;;;;;;;;;;5.50;99.90;;;;;;5042958;28;20192;-73
2022/02/03 17:07:55;;;;;;;;;;;5.50;99.90;;;;;;5043359;28;20371;-73
2022/02/03 17:10:21;;;;;;;;;;;5.50;99.90;;;;;;5017191;28;19932;-73
2022/02/03 17:12:49;;;;;;;;;;;5.50;99.90;;;;;;5038980;28;19970;-72
2022/02/03 17:15:18;;;;;;;;;;;5.50;99.90;;;;;;5024932;28;19936;-73
2022/02/03 17:17:50;;;;;;;;;;;5.50;99.90;;;;;;5024676;28;19982;-72
2022/02/03 17:20:17;;;;;;;;;;;5.50;99.90;;;;;;5041583;28;19924;-72
2022/02/03 17:22:48;;;;;;;;;;;5.50;99.90;;;;;;5028234;28;19976;-72
2022/02/03 17:25:22;;;;;;;;;;;5.50;99.90;;;;;;5025276;28;20023;-72
2022/02/03 17:27:59;;;;;;;;;;;5.50;99.90;;;;;;5039332;28;19978;-73
2022/02/03 18:08:37;;;;;;;;;;;5.50;99.90;;;;;;5028235;28;20452;-73
2022/02/03 18:32:42;;;;;;;;;;;5.40;99.90;;;;;;5021478;28;20016;-73
2022/02/03 18:49:53;;;;;;;;;;;5.30;99.90;;;;;;5042082;28;19982;-73
2022/02/03 18:55:32;;;;;;;33.83;19.10;;;5.20;99.90;;;;;;5013794;28;20045;-76
2022/02/03 19:09:25;;;;;;;43.78;23.23;;;5.00;99.90;;;;;;5026892;28;20073;-75
2022/02/03 19:25:46;;;;;;;43.70;22.58;;;5.00;99.90;;;;;;4976341;28;20086;-72
2022/02/03 20:09:20;;;;;;;;;;;4.90;99.90;;;;;;4950981;28;20039;-72
2022/02/03 20:11:49;;;;;;;47.63;22.90;;;4.90;99.90;;;;;;4946956;28;20024;-71
2022/02/03 20:14:16;;;;;;;43.33;22.52;;;4.90;99.90;;;;;;4963082;28;20110;-72
2022/02/03 20:16:43;;;;;;;44.03;23.80;;;4.90;99.90;;;;;;4965139;28;20070;-70
2022/02/03 20:19:12;;;;;;;45.10;23.17;;;4.90;99.90;;;;;;4965409;28;20047;-72
2022/02/03 20:21:41;;;;;;;45.58;22.92;;;4.90;99.90;;;;;;4965314;28;20079;-72
2022/02/03 20:24:08;;;;;;;42.97;22.45;;;4.90;99.90;;;;;;4969604;28;20801;-71
2022/02/03 20:26:37;;;;;;;40.95;21.17;;;4.90;99.90;;;;;;4976984;28;20395;-71
2022/02/03 20:29:04;;;;;;;47.10;23.02;;;4.90;99.90;;;;;;4952406;28;20078;-71
2022/02/03 20:31:31;;;;;;;43.28;23.63;;;4.90;99.90;;;;;;4979396;28;20083;-72
2022/02/03 20:33:58;;;;;;;41.42;22.55;;;4.90;99.90;;;;;;4964520;28;20130;-72
2022/02/03 20:36:25;;;;;;;40.63;21.33;;;4.90;99.90;;;;;;4958642;28;20389;-72
2022/02/03 20:38:52;;;;;;;45.13;22.83;;;5.00;99.90;;;;;;4945644;28;20045;-71
2022/02/03 20:41:20;;;;;;;47.08;22.05;;;5.00;99.90;;;;;;4944934;28;20142;-71
2022/02/03 20:43:47;;;;;;;38.38;19.23;;;5.00;99.90;;;;;;4946466;28;20059;-71
2022/02/03 20:46:14;;;;;;;43.25;23.70;;;5.00;99.90;;;;;;4960355;28;20042;-71
2022/02/03 20:48:45;;;;;;;38.67;21.65;;;5.00;99.90;;;;;;4945421;28;20086;-71
2022/02/03 20:51:17;;;;;;;37.83;21.20;;;4.90;99.90;;;;;;4960805;28;20063;-71
2022/02/03 20:53:46;;;;;;;42.67;23.45;;;5.00;99.90;;;;;;4954998;28;20084;-71
2022/02/03 20:56:16;;;;;;;40.40;20.92;;;5.00;99.90;;;;;;4963450;28;20039;-71
2022/02/03 20:58:44;;;;;;;40.63;22.30;;;5.00;99.90;;;;;;4936196;29;20125;-72
2022/02/03 21:01:18;;;;;;;39.08;22.60;;;5.00;99.90;;;;;;4958938;28;20490;-71
2022/02/03 21:03:47;;;;;;;42.60;22.85;;;5.00;99.90;;;;;;4945573;28;20074;-71
2022/02/03 21:06:15;;;;;;;46.72;23.98;;;5.00;99.90;;;;;;4948613;28;20053;-71
2022/02/03 21:08:46;;;;;;;47.58;24.60;;;5.00;99.90;;;;;;4950810;28;20071;-70
2022/02/03 21:11:14;;;;;;;46.90;24.33;;;5.10;99.90;;;;;;4957919;28;20098;-69
2022/02/03 21:13:41;;;;;;;37.53;19.13;;;5.10;99.90;;;;;;4945115;28;20039;-70
2022/02/03 21:16:08;;;;;;;45.58;23.90;;;5.00;99.90;;;;;;4946166;28;20149;-72
2022/02/03 21:18:39;;;;;;;56.30;25.92;;;5.00;99.90;;;;;;4947582;28;20153;-72
2022/02/03 21:21:06;;;;;;;54.97;25.55;;;5.10;99.90;;;;;;4975546;28;20130;-71
2022/02/03 21:23:34;;;;;;;49.33;23.42;;;5.00;99.90;;;;;;4947429;28;20135;-70
2022/02/03 21:26:05;;;;;;;52.08;23.70;;;5.10;99.90;;;;;;4941570;28;20050;-70
2022/02/03 21:28:34;;;;;;;54.00;26.35;;;5.00;99.90;;;;;;4973481;28;20425;-72
2022/02/03 21:31:04;;;;;;;58.35;26.77;;;5.00;99.90;;;;;;4944077;28;20255;-71
2022/02/03 21:33:34;;;;;;;47.50;23.15;;;5.00;99.90;;;;;;4945709;28;20143;-71
2022/02/03 21:36:10;;;;;;;57.08;29.00;;;5.00;99.90;;;;;;4946287;28;20556;-71
2022/02/03 21:38:39;;;;;;;52.92;25.92;;;5.00;99.90;;;;;;4946278;28;20142;-72
2022/02/03 21:41:06;;;;;;;57.17;25.83;;;5.00;99.90;;;;;;4954902;28;20039;-70
2022/02/03 21:43:33;;;;;;;46.15;21.70;;;5.10;99.90;;;;;;4954593;28;20086;-72
2022/02/03 21:46:01;;;;;;;48.55;25.70;;;5.00;99.90;;;;;;4961526;28;20152;-71
2022/02/03 21:48:27;;;;;;;52.92;25.25;;;5.00;99.90;;;;;;4961133;28;20121;-72
2022/02/03 21:50:58;;;;;;;52.42;24.85;;;5.00;99.90;;;;;;4962118;28;20122;-71
2022/02/03 21:53:30;;;;;;;56.13;26.48;;;5.00;99.90;;;;;;4956819;28;20154;-71
2022/02/03 21:55:57;;;;;;;49.65;25.02;;;5.10;99.90;;;;;;4944810;28;20143;-71
2022/02/03 21:58:27;;;;;;;49.25;25.45;;;5.10;99.90;;;;;;4960211;28;20130;-72
2022/02/03 22:00:55;;;;;;;59.00;26.02;;;5.10;99.90;;;;;;4962576;28;20170;-71
2022/02/03 22:03:26;;;;;;;58.38;28.42;;;5.10;99.90;;;;;;4962887;28;20054;-70
2022/02/03 22:05:54;;;;;;;58.25;28.45;;;5.10;99.90;;;;;;4959031;28;20433;-71
2022/02/03 22:08:21;;;;;;;61.05;28.30;;;5.10;99.90;;;;;;4943043;28;20749;-71
2022/02/03 22:10:48;;;;;;;55.92;28.40;;;5.10;99.90;;;;;;4973117;28;20050;-72
2022/02/03 22:13:15;;;;;;;58.60;27.45;;;5.10;99.90;;;;;;4956097;28;20070;-71
2022/02/03 22:15:42;;;;;;;59.53;26.80;;;5.10;99.90;;;;;;4948009;28;20134;-72
2022/02/03 22:18:16;;;;;;;55.55;28.33;;;5.10;99.90;;;;;;4944561;28;20043;-70
2022/02/03 22:20:59;;;;;;;53.63;27.33;;;5.10;99.90;;;;;;4945598;28;20043;-72
2022/02/03 22:23:40;;;;;;;54.70;27.30;;;5.10;99.90;;;;;;4960806;28;20079;-71
2022/02/03 22:28:54;;;;;;;48.80;25.08;;;5.10;99.90;;;;;;4964502;28;20051;-72
2022/02/03 22:42:29;;;;;;;57.33;27.85;;;5.10;99.90;;;;;;4944760;28;20138;-72
2022/02/03 22:50:04;;;;;;;57.05;26.75;;;5.10;99.90;;;;;;4943746;28;20117;-72
2022/02/03 22:52:31;;;;;;;57.75;28.77;;;5.10;99.90;;;;;;4944663;28;20074;-73
2022/02/03 22:54:58;;;;;;;62.50;29.20;;;5.10;99.90;;;;;;4958544;28;20035;-70
2022/02/03 22:57:26;;;;;;;58.38;28.42;;;5.10;99.90;;;;;;4961690;28;20524;-72
2022/02/03 23:02:39;;;;;;;62.20;29.27;;;5.10;99.90;;;;;;4961351;28;20055;-73
2022/02/03 23:05:07;;;;;;;62.00;30.15;;;5.20;99.90;;;;;;4956179;28;20162;-72
2022/02/03 23:07:38;;;;;;;58.22;27.27;;;5.20;99.90;;;;;;4959008;28;20146;-72
2022/02/03 23:10:18;;;;;;;51.17;24.98;;;5.10;99.90;;;;;;4939273;28;20134;-73
2022/02/03 23:17:45;;;;;;;62.85;30.23;;;5.10;99.90;;;;;;4943281;28;20513;-72
2022/02/03 23:20:24;;;;;;;60.50;28.05;;;5.10;99.90;;;;;;4943001;28;20489;-71
2022/02/03 23:22:51;;;;;;;73.97;34.00;;;5.10;99.90;;;;;;4941958;28;20098;-71
2022/02/03 23:25:19;;;;;;;66.53;30.98;;;5.10;99.90;;;;;;4959824;28;20055;-72
2022/02/03 23:28:08;;;;;;;71.65;30.73;;;5.10;99.90;;;;;;4941786;28;20039;-72
2022/02/03 23:30:35;;;;;;;66.80;31.33;;;5.20;99.90;;;;;;4944710;28;20073;-71
2022/02/03 23:33:03;;;;;;;71.00;31.48;;;5.10;99.90;;;;;;4947242;28;20126;-71
2022/02/03 23:35:32;;;;;;;74.15;32.28;;;5.10;99.90;;;;;;4958390;28;20467;-71
